sensor_id;sensor_type;location;lat;lon;timestamp;pressure;altitude;pressure_sealevel;temperature;humidity
8286;BME280;4181;43.416;24.598;2023-11-22T00:00:15;99379.72;;;12.52;100.00
8286;BME280;4181;43.416;24.598;2023-11-22T00:02:42;99390.59;;;12.62;100.00
8286;BME280;4181;43.416;24.598;2023-11-22T00:05:08;99391.13;;;12.69;100.00
8286;BME280;4181;43.416;24.598;2023-11-22T00:07:35;99393.31;;;12.67;100.00
8286;BME280;4181;43.416;24.598;2023-11-22T00:10:00;99393.63;;;12.60;100.00
8286;BME280;4181;43.416;24.598;2023-11-22T00:12:27;99397.75;;;12.58;100.00
8286;BME280;4181;43.416;24.598;2023-11-22T00:14:53;99405.44;;;12.51;100.00
8286;BME280;4181;43.416;24.598;2023-11-22T00:17:19;99395.63;;;12.50;100.00
8286;BME280;4181;43.416;24.598;2023-11-22T00:19:44;99395.03;;;12.58;100.00
8286;BME280;4181;43.416;24.598;2023-11-22T00:22:11;99394.41;;;12.66;100.00
8286;BME280;4181;43.416;24.598;2023-11-22T00:24:40;99393.56;;;12.70;100.00
8286;BME280;4181;43.416;24.598;2023-11-22T00:27:07;99384.03;;;12.63;100.00
8286;BME280;4181;43.416;24.598;2023-11-22T00:29:32;99385.69;;;12.59;100.00
8286;BME280;4181;43.416;24.598;2023-11-22T00:31:58;99398.34;;;12.50;100.00
8286;BME280;4181;43.416;24.598;2023-11-22T00:34:24;99387.47;;;12.40;100.00
8286;BME280;4181;43.416;24.598;2023-11-22T00:36:49;99382.00;;;12.40;100.00
8286;BME280;4181;43.416;24.598;2023-11-22T00:39:16;99383.63;;;12.41;100.00
8286;BME280;4181;43.416;24.598;2023-11-22T00:41:42;99379.47;;;12.43;100.00
8286;BME280;4181;43.416;24.598;2023-11-22T00:44:07;99400.59;;;12.38;100.00
8286;BME280;4181;43.416;24.598;2023-11-22T00:46:33;99410.97;;;12.41;100.00
8286;BME280;4181;43.416;24.598;2023-11-22T00:48:58;99409.94;;;12.27;100.00
8286;BME280;4181;43.416;24.598;2023-11-22T00:51:24;99408.91;;;12.13;100.00
8286;BME280;4181;43.416;24.598;2023-11-22T00:53:49;99407.22;;;12.22;100.00
8286;BME280;4181;43.416;24.598;2023-11-22T00:56:16;99417.09;;;12.18;100.00
8286;BME280;4181;43.416;24.598;2023-11-22T00:58:41;99405.34;;;12.12;100.00
8286;BME280;4181;43.416;24.598;2023-11-22T01:01:07;99408.91;;;12.13;100.00
8286;BME280;4181;43.416;24.598;2023-11-22T01:03:34;99404.25;;;12.18;100.00
8286;BME280;4181;43.416;24.598;2023-11-22T01:06:00;99411.38;;;12.04;100.00
8286;BME280;4181;43.416;24.598;2023-11-22T01:08:26;99403.41;;;12.18;100.00
8286;BME280;4181;43.416;24.598;2023-11-22T01:10:52;99392.16;;;12.29;100.00
8286;BME280;4181;43.416;24.598;2023-11-22T01:13:17;99405.03;;;12.24;100.00
8286;BME280;4181;43.416;24.598;2023-11-22T01:15:43;99394.59;;;12.31;100.00
8286;BME280;4181;43.416;24.598;2023-11-22T01:18:12;99398.22;;;12.21;100.00
8286;BME280;4181;43.416;24.598;2023-11-22T01:20:38;99399.53;;;12.24;100.00
8286;BME280;4181;43.416;24.598;2023-11-22T01:23:03;99390.72;;;12.37;100.00
8286;BME280;4181;43.416;24.598;2023-11-22T01:25:29;99392.91;;;12.45;100.00
8286;BME280;4181;43.416;24.598;2023-11-22T01:27:54;99402.44;;;12.47;100.00
8286;BME280;4181;43.416;24.598;2023-11-22T01:30:20;99404.34;;;12.47;100.00
8286;BME280;4181;43.416;24.598;2023-11-22T01:32:45;99410.97;;;12.41;100.00
8286;BME280;4181;43.416;24.598;2023-11-22T01:35:11;99413.72;;;12.41;100.00
8286;BME280;4181;43.416;24.598;2023-11-22T01:37:36;99401.16;;;12.35;100.00
8286;BME280;4181;43.416;24.598;2023-11-22T01:40:03;99391.28;;;12.39;100.00
8286;BME280;4181;43.416;24.598;2023-11-22T01:42:29;99370.47;;;12.43;100.00
8286;BME280;4181;43.416;24.598;2023-11-22T01:44:55;99362.81;;;12.45;100.00
8286;BME280;4181;43.416;24.598;2023-11-22T01:47:21;99380.81;;;12.51;100.00
8286;BME280;4181;43.416;24.598;2023-11-22T01:49:47;99385.19;;;12.52;100.00
8286;BME280;4181;43.416;24.598;2023-11-22T01:52:13;99376.16;;;12.56;100.00
8286;BME280;4181;43.416;24.598;2023-11-22T01:54:40;99375.94;;;12.43;100.00
8286;BME280;4181;43.416;24.598;2023-11-22T01:57:06;99372.66;;;12.41;100.00
8286;BME280;4181;43.416;24.598;2023-11-22T01:59:34;99371.59;;;12.32;100.00
8286;BME280;4181;43.416;24.598;2023-11-22T02:02:00;99375.16;;;12.32;100.00
8286;BME280;4181;43.416;24.598;2023-11-22T02:04:25;99361.22;;;12.34;100.00
8286;BME280;4181;43.416;24.598;2023-11-22T02:06:51;99366.13;;;12.37;100.00
8286;BME280;4181;43.416;24.598;2023-11-22T02:09:17;99367.47;;;12.44;100.00
8286;BME280;4181;43.416;24.598;2023-11-22T02:11:43;99361.97;;;12.44;100.00
8286;BME280;4181;43.416;24.598;2023-11-22T02:14:11;99373.72;;;12.50;100.00
8286;BME280;4181;43.416;24.598;2023-11-22T02:16:36;99378.66;;;12.48;100.00
8286;BME280;4181;43.416;24.598;2023-11-22T02:19:03;99365.56;;;12.40;100.00
8286;BME280;4181;43.416;24.598;2023-11-22T02:21:30;99369.69;;;12.37;100.00
8286;BME280;4181;43.416;24.598;2023-11-22T02:23:56;99377.63;;;12.34;100.00
8286;BME280;4181;43.416;24.598;2023-11-22T02:26:22;99375.75;;;12.24;100.00
8286;BME280;4181;43.416;24.598;2023-11-22T02:28:47;99379.69;;;12.03;100.00
8286;BME280;4181;43.416;24.598;2023-11-22T02:31:13;99375.94;;;11.79;100.00
8286;BME280;4181;43.416;24.598;2023-11-22T02:33:39;99374.50;;;11.92;100.00
8286;BME280;4181;43.416;24.598;2023-11-22T02:36:05;99358.38;;;11.95;100.00
8286;BME280;4181;43.416;24.598;2023-11-22T02:38:33;99360.28;;;12.00;100.00
8286;BME280;4181;43.416;24.598;2023-11-22T02:41:01;99351.25;;;11.99;100.00
8286;BME280;4181;43.416;24.598;2023-11-22T02:43:26;99353.69;;;12.06;100.00
8286;BME280;4181;43.416;24.598;2023-11-22T02:45:53;99349.06;;;12.06;100.00
8286;BME280;4181;43.416;24.598;2023-11-22T02:48:18;99343.31;;;12.08;100.00
8286;BME280;4181;43.416;24.598;2023-11-22T02:50:44;99343.28;;;12.13;100.00
8286;BME280;4181;43.416;24.598;2023-11-22T02:53:10;99345.16;;;12.17;100.00
8286;BME280;4181;43.416;24.598;2023-11-22T02:55:35;99326.56;;;12.19;100.00
8286;BME280;4181;43.416;24.598;2023-11-22T02:58:01;99346.28;;;12.11;100.00
8286;BME280;4181;43.416;24.598;2023-11-22T03:00:27;99322.94;;;11.60;100.00
8286;BME280;4181;43.416;24.598;2023-11-22T03:02:54;99349.94;;;11.82;100.00
8286;BME280;4181;43.416;24.598;2023-11-22T03:05:21;99350.22;;;11.75;100.00
8286;BME280;4181;43.416;24.598;2023-11-22T03:07:47;99343.69;;;11.81;100.00
8286;BME280;4181;43.416;24.598;2023-11-22T03:10:12;99350.25;;;11.70;100.00
8286;BME280;4181;43.416;24.598;2023-11-22T03:12:38;99356.84;;;11.64;100.00
8286;BME280;4181;43.416;24.598;2023-11-22T03:15:04;99341.00;;;11.66;100.00
8286;BME280;4181;43.416;24.598;2023-11-22T03:17:30;99338.78;;;11.73;100.00
8286;BME280;4181;43.416;24.598;2023-11-22T03:19:58;99336.28;;;11.77;100.00
8286;BME280;4181;43.416;24.598;2023-11-22T03:22:24;99345.63;;;11.66;100.00
8286;BME280;4181;43.416;24.598;2023-11-22T03:24:50;99354.34;;;11.73;100.00
8286;BME280;4181;43.416;24.598;2023-11-22T03:27:16;99349.94;;;11.82;100.00
8286;BME280;4181;43.416;24.598;2023-11-22T03:29:41;99344.72;;;11.90;100.00
8286;BME280;4181;43.416;24.598;2023-11-22T03:32:06;99339.50;;;11.99;100.00
8286;BME280;4181;43.416;24.598;2023-11-22T03:34:33;99347.16;;;11.97;100.00
8286;BME280;4181;43.416;24.598;2023-11-22T03:36:59;99365.78;;;11.90;100.00
8286;BME280;4181;43.416;24.598;2023-11-22T03:39:24;99368.53;;;11.90;100.00
8286;BME280;4181;43.416;24.598;2023-11-22T03:41:52;99385.47;;;11.82;100.00
8286;BME280;4181;43.416;24.598;2023-11-22T03:44:18;99384.41;;;11.78;100.00
8286;BME280;4181;43.416;24.598;2023-11-22T03:46:43;99375.13;;;11.64;100.00
8286;BME280;4181;43.416;24.598;2023-11-22T03:49:09;99367.75;;;11.74;100.00
8286;BME280;4181;43.416;24.598;2023-11-22T03:51:37;99376.78;;;11.70;100.00
8286;BME280;4181;43.416;24.598;2023-11-22T03:54:03;99370.47;;;11.79;100.00
8286;BME280;4181;43.416;24.598;2023-11-22T03:56:29;99367.97;;;11.88;100.00
8286;BME280;4181;43.416;24.598;2023-11-22T03:58:55;99381.09;;;11.86;100.00
8286;BME280;4181;43.416;24.598;2023-11-22T04:01:20;99382.72;;;11.87;100.00
8286;BME280;4181;43.416;24.598;2023-11-22T04:03:47;99389.00;;;11.87;100.00
8286;BME280;4181;43.416;24.598;2023-11-22T04:06:18;99388.72;;;11.94;100.00
8286;BME280;4181;43.416;24.598;2023-11-22T04:08:48;99386.81;;;11.99;100.00
8286;BME280;4181;43.416;24.598;2023-11-22T04:11:14;99389.81;;;11.98;100.00
8286;BME280;4181;43.416;24.598;2023-11-22T04:13:39;99389.25;;;12.01;100.00
8286;BME280;4181;43.416;24.598;2023-11-22T04:16:06;99396.34;;;11.97;100.00
8286;BME280;4181;43.416;24.598;2023-11-22T04:18:34;99410.31;;;11.95;100.00
8286;BME280;4181;43.416;24.598;2023-11-22T04:21:01;99416.84;;;12.04;100.00
8286;BME280;4181;43.416;24.598;2023-11-22T04:23:30;99417.13;;;12.08;100.00
8286;BME280;4181;43.416;24.598;2023-11-22T04:25:56;99405.34;;;12.07;100.00
8286;BME280;4181;43.416;24.598;2023-11-22T04:28:23;99413.81;;;12.16;100.00
8286;BME280;4181;43.416;24.598;2023-11-22T04:30:49;99423.41;;;12.13;100.00
8286;BME280;4181;43.416;24.598;2023-11-22T04:33:14;99427.56;;;11.86;100.00
8286;BME280;4181;43.416;24.598;2023-11-22T04:35:40;99439.31;;;11.91;100.00
8286;BME280;4181;43.416;24.598;2023-11-22T04:38:08;99435.75;;;11.86;100.00
8286;BME280;4181;43.416;24.598;2023-11-22T04:40:33;99454.06;;;11.80;100.00
8286;BME280;4181;43.416;24.598;2023-11-22T04:42:59;99437.16;;;11.83;100.00
8286;BME280;4181;43.416;24.598;2023-11-22T04:45:24;99445.59;;;11.82;100.00
8286;BME280;4181;43.416;24.598;2023-11-22T04:47:50;99435.50;;;11.72;100.00
8286;BME280;4181;43.416;24.598;2023-11-22T04:50:15;99430.59;;;11.79;100.00
8286;BME280;4181;43.416;24.598;2023-11-22T04:52:41;99432.47;;;11.84;100.00
8286;BME280;4181;43.416;24.598;2023-11-22T04:55:07;99440.38;;;11.90;100.00
8286;BME280;4181;43.416;24.598;2023-11-22T04:57:33;99441.22;;;11.91;100.00
8286;BME280;4181;43.416;24.598;2023-11-22T04:59:58;99441.78;;;11.88;100.00
8286;BME280;4181;43.416;24.598;2023-11-22T05:02:25;99435.75;;;11.91;100.00
8286;BME280;4181;43.416;24.598;2023-11-22T05:04:52;99435.75;;;11.86;100.00
8286;BME280;4181;43.416;24.598;2023-11-22T05:07:19;99452.16;;;11.81;100.00
8286;BME280;4181;43.416;24.598;2023-11-22T05:09:45;99446.97;;;11.79;100.00
8286;BME280;4181;43.416;24.598;2023-11-22T05:12:11;99436.03;;;11.89;100.00
8286;BME280;4181;43.416;24.598;2023-11-22T05:14:37;99438.47;;;11.91;100.00
8286;BME280;4181;43.416;24.598;2023-11-22T05:17:04;99440.66;;;11.94;100.00
8286;BME280;4181;43.416;24.598;2023-11-22T05:19:30;99453.25;;;11.95;100.00
8286;BME280;4181;43.416;24.598;2023-11-22T05:21:55;99459.22;;;11.97;100.00
8286;BME280;4181;43.416;24.598;2023-11-22T05:24:21;99462.78;;;11.97;100.00
8286;BME280;4181;43.416;24.598;2023-11-22T05:26:47;99458.72;;;12.00;100.00
8286;BME280;4181;43.416;24.598;2023-11-22T05:29:12;99467.97;;;11.99;100.00
8286;BME280;4181;43.416;24.598;2023-11-22T05:31:37;99466.91;;;12.00;100.00
8286;BME280;4181;43.416;24.598;2023-11-22T05:34:03;99469.34;;;12.01;100.00
8286;BME280;4181;43.416;24.598;2023-11-22T05:36:29;99478.91;;;11.99;100.00
8286;BME280;4181;43.416;24.598;2023-11-22T05:38:55;99479.75;;;12.04;100.00
8286;BME280;4181;43.416;24.598;2023-11-22T05:41:24;99481.66;;;11.94;100.00
8286;BME280;4181;43.416;24.598;2023-11-22T05:43:51;99478.91;;;11.99;100.00
8286;BME280;4181;43.416;24.598;2023-11-22T05:46:18;99489.28;;;12.02;100.00
8286;BME280;4181;43.416;24.598;2023-11-22T05:48:47;99477.28;;;12.08;100.00
8286;BME280;4181;43.416;24.598;2023-11-22T05:51:14;99484.38;;;12.09;100.00
8286;BME280;4181;43.416;24.598;2023-11-22T05:53:39;99506.22;;;12.14;100.00
8286;BME280;4181;43.416;24.598;2023-11-22T05:56:05;99501.88;;;12.18;100.00
8286;BME280;4181;43.416;24.598;2023-11-22T05:58:30;99506.22;;;12.14;100.00
8286;BME280;4181;43.416;24.598;2023-11-22T06:00:56;99500.75;;;12.19;100.00
8286;BME280;4181;43.416;24.598;2023-11-22T06:03:22;99512.78;;;12.23;100.00
8286;BME280;4181;43.416;24.598;2023-11-22T06:05:48;99509.22;;;12.27;100.00
8286;BME280;4181;43.416;24.598;2023-11-22T06:08:13;99531.09;;;12.27;100.00
8286;BME280;4181;43.416;24.598;2023-11-22T06:10:39;99535.22;;;12.20;100.00
8286;BME280;4181;43.416;24.598;2023-11-22T06:13:06;99532.22;;;12.16;100.00
8286;BME280;4181;43.416;24.598;2023-11-22T06:15:31;99550.53;;;12.16;100.00
8286;BME280;4181;43.416;24.598;2023-11-22T06:17:57;99553.25;;;12.16;100.00
8286;BME280;4181;43.416;24.598;2023-11-22T06:20:23;99557.63;;;12.17;100.00
8286;BME280;4181;43.416;24.598;2023-11-22T06:22:51;99568.03;;;12.20;100.00
8286;BME280;4181;43.416;24.598;2023-11-22T06:25:17;99567.22;;;12.14;100.00
8286;BME280;4181;43.416;24.598;2023-11-22T06:27:42;99573.53;;;12.15;100.00
8286;BME280;4181;43.416;24.598;2023-11-22T06:30:08;99571.06;;;12.13;100.00
8286;BME280;4181;43.416;24.598;2023-11-22T06:32:36;99573.25;;;12.16;100.00
8286;BME280;4181;43.416;24.598;2023-11-22T06:35:03;99571.84;;;12.14;100.00
8286;BME280;4181;43.416;24.598;2023-11-22T06:37:28;99572.41;;;12.16;100.00
8286;BME280;4181;43.416;24.598;2023-11-22T06:39:54;99580.63;;;12.01;100.00
8286;BME280;4181;43.416;24.598;2023-11-22T06:42:19;99583.63;;;11.99;100.00
8286;BME280;4181;43.416;24.598;2023-11-22T06:44:45;99592.09;;;11.93;100.00
8286;BME280;4181;43.416;24.598;2023-11-22T06:47:14;99580.63;;;12.01;100.00
8286;BME280;4181;43.416;24.598;2023-11-22T06:49:39;99585.53;;;11.89;100.00
8286;BME280;4181;43.416;24.598;2023-11-22T06:52:05;99579.50;;;11.67;100.00
8286;BME280;4181;43.416;24.598;2023-11-22T06:54:31;99563.94;;;11.82;100.00
8286;BME280;4181;43.416;24.598;2023-11-22T06:56:56;99571.31;;;11.82;100.00
8286;BME280;4181;43.416;24.598;2023-11-22T06:59:22;99581.16;;;11.83;100.00
8286;BME280;4181;43.416;24.598;2023-11-22T07:01:48;99568.59;;;11.87;100.00
8286;BME280;4181;43.416;24.598;2023-11-22T07:04:13;99568.59;;;11.87;100.00
8286;BME280;4181;43.416;24.598;2023-11-22T07:06:39;99571.88;;;11.79;100.00
8286;BME280;4181;43.416;24.598;2023-11-22T07:09:05;99560.38;;;11.82;100.00
8286;BME280;4181;43.416;24.598;2023-11-22T07:11:30;99553.84;;;11.98;100.00
8286;BME280;4181;43.416;24.598;2023-11-22T07:13:56;99549.44;;;12.02;100.00
8286;BME280;4181;43.416;24.598;2023-11-22T07:16:23;99548.38;;;11.98;100.00
8286;BME280;4181;43.416;24.598;2023-11-22T07:18:50;99551.09;;;11.93;100.00
8286;BME280;4181;43.416;24.598;2023-11-22T07:21:15;99548.09;;;11.89;100.00
8286;BME280;4181;43.416;24.598;2023-11-22T07:23:42;99556.56;;;12.03;100.00
8286;BME280;4181;43.416;24.598;2023-11-22T07:26:07;99561.47;;;12.16;100.00
8286;BME280;4181;43.416;24.598;2023-11-22T07:28:33;99554.09;;;12.21;100.00
8286;BME280;4181;43.416;24.598;2023-11-22T07:31:01;99562.56;;;12.25;100.00
8286;BME280;4181;43.416;24.598;2023-11-22T07:33:27;99564.19;;;12.31;100.00
8286;BME280;4181;43.416;24.598;2023-11-22T07:35:52;99572.13;;;12.32;100.00
8286;BME280;4181;43.416;24.598;2023-11-22T07:38:18;99575.66;;;12.38;100.00
8286;BME280;4181;43.416;24.598;2023-11-22T07:40:44;99583.59;;;12.44;100.00
8286;BME280;4181;43.416;24.598;2023-11-22T07:43:10;99587.38;;;12.48;100.00
8286;BME280;4181;43.416;24.598;2023-11-22T07:45:35;99579.47;;;12.42;100.00
8286;BME280;4181;43.416;24.598;2023-11-22T07:48:03;99601.66;;;12.30;100.00
8286;BME280;4181;43.416;24.598;2023-11-22T07:50:29;99601.94;;;12.14;100.00
8286;BME280;4181;43.416;24.598;2023-11-22T07:52:55;99597.56;;;12.28;100.00
8286;BME280;4181;43.416;24.598;2023-11-22T07:55:21;99599.47;;;12.22;100.00
8286;BME280;4181;43.416;24.598;2023-11-22T07:57:50;99609.56;;;12.32;100.00
8286;BME280;4181;43.416;24.598;2023-11-22T08:00:17;99605.78;;;12.23;100.00
8286;BME280;4181;43.416;24.598;2023-11-22T08:02:45;99598.91;;;12.30;100.00
8286;BME280;4181;43.416;24.598;2023-11-22T08:05:11;99593.16;;;12.32;100.00
8286;BME280;4181;43.416;24.598;2023-11-22T08:07:38;99595.91;;;12.37;100.00
8286;BME280;4181;43.416;24.598;2023-11-22T08:10:07;99592.34;;;12.41;100.00
8286;BME280;4181;43.416;24.598;2023-11-22T08:12:43;99589.91;;;12.40;100.00
8286;BME280;4181;43.416;24.598;2023-11-22T08:15:10;99573.19;;;12.46;100.00
8286;BME280;4181;43.416;24.598;2023-11-22T08:17:41;99577.56;;;12.42;100.00
8286;BME280;4181;43.416;24.598;2023-11-22T08:20:07;99561.97;;;12.43;100.00
8286;BME280;4181;43.416;24.598;2023-11-22T08:22:39;99580.59;;;12.41;100.00
8286;BME280;4181;43.416;24.598;2023-11-22T08:25:06;99563.06;;;12.37;100.00
8286;BME280;4181;43.416;24.598;2023-11-22T08:27:33;99564.19;;;12.31;100.00
8286;BME280;4181;43.416;24.598;2023-11-22T08:29:59;99565.81;;;12.32;100.00
8286;BME280;4181;43.416;24.598;2023-11-22T08:32:26;99574.84;;;12.32;100.00
8286;BME280;4181;43.416;24.598;2023-11-22T08:34:56;99571.00;;;12.28;100.00
8286;BME280;4181;43.416;24.598;2023-11-22T08:37:39;99570.75;;;12.35;100.00
8286;BME280;4181;43.416;24.598;2023-11-22T08:40:10;99575.94;;;12.41;100.00
8286;BME280;4181;43.416;24.598;2023-11-22T08:42:50;99578.38;;;12.48;100.00
8286;BME280;4181;43.416;24.598;2023-11-22T08:45:15;99579.50;;;12.32;100.00
8286;BME280;4181;43.416;24.598;2023-11-22T08:47:41;99579.50;;;12.22;100.00
8286;BME280;4181;43.416;24.598;2023-11-22T08:50:08;99575.41;;;12.24;100.00
8286;BME280;4181;43.416;24.598;2023-11-22T08:52:40;99571.84;;;12.29;100.00
8286;BME280;4181;43.416;24.598;2023-11-22T08:55:10;99569.09;;;12.34;100.00
8286;BME280;4181;43.416;24.598;2023-11-22T08:57:38;99571.00;;;12.38;100.00
8286;BME280;4181;43.416;24.598;2023-11-22T09:00:04;99575.38;;;12.44;100.00
8286;BME280;4181;43.416;24.598;2023-11-22T09:02:37;99580.28;;;12.52;100.00
8286;BME280;4181;43.416;24.598;2023-11-22T09:05:04;99590.41;;;12.52;100.00
8286;BME280;4181;43.416;24.598;2023-11-22T09:07:38;99591.19;;;12.62;100.00
8286;BME280;4181;43.416;24.598;2023-11-22T09:10:05;99593.66;;;12.69;100.00
8286;BME280;4181;43.416;24.598;2023-11-22T09:12:41;99604.31;;;12.70;100.00
8286;BME280;4181;43.416;24.598;2023-11-22T09:15:11;99604.31;;;12.65;100.00
8286;BME280;4181;43.416;24.598;2023-11-22T09:17:38;99599.13;;;12.64;100.00
8286;BME280;4181;43.416;24.598;2023-11-22T09:22:41;99610.97;;;12.29;100.00
8286;BME280;4181;43.416;24.598;2023-11-22T09:25:10;99598.91;;;12.30;100.00
8286;BME280;4181;43.416;24.598;2023-11-22T09:27:36;99598.66;;;12.22;100.00
8286;BME280;4181;43.416;24.598;2023-11-22T09:30:04;99600.31;;;12.23;100.00
8286;BME280;4181;43.416;24.598;2023-11-22T09:32:30;99597.03;;;12.16;100.00
8286;BME280;4181;43.416;24.598;2023-11-22T09:34:56;99593.19;;;12.17;100.00
8286;BME280;4181;43.416;24.598;2023-11-22T09:37:23;99582.50;;;12.25;100.00
8286;BME280;4181;43.416;24.598;2023-11-22T09:39:50;99571.00;;;12.38;100.00
8286;BME280;4181;43.416;24.598;2023-11-22T09:42:16;99565.78;;;12.42;100.00
8286;BME280;4181;43.416;24.598;2023-11-22T09:44:41;99564.16;;;12.46;100.00
8286;BME280;4181;43.416;24.598;2023-11-22T09:47:08;99571.81;;;12.49;100.00
8286;BME280;4181;43.416;24.598;2023-11-22T09:49:36;99584.91;;;12.62;100.00
8286;BME280;4181;43.416;24.598;2023-11-22T09:52:07;99582.72;;;12.59;100.00
8286;BME280;4181;43.416;24.598;2023-11-22T09:54:36;99586.56;;;12.63;100.00
8286;BME280;4181;43.416;24.598;2023-11-22T09:57:06;99593.38;;;12.65;100.00
8286;BME280;4181;43.416;24.598;2023-11-22T09:59:34;99599.97;;;12.59;100.00
8286;BME280;4181;43.416;24.598;2023-11-22T10:02:00;99595.31;;;12.65;100.00
8286;BME280;4181;43.416;24.598;2023-11-22T10:04:26;99592.84;;;12.53;100.00
8286;BME280;4181;43.416;24.598;2023-11-22T10:06:54;99602.72;;;12.59;100.00
8286;BME280;4181;43.416;24.598;2023-11-22T10:09:20;99605.72;;;12.63;100.00
8286;BME280;4181;43.416;24.598;2023-11-22T10:11:49;99589.00;;;12.64;100.00
8286;BME280;4181;43.416;24.598;2023-11-22T10:14:24;99598.84;;;12.65;100.00
8286;BME280;4181;43.416;24.598;2023-11-22T10:17:08;99596.41;;;12.64;100.00
8286;BME280;4181;43.416;24.598;2023-11-22T10:19:35;99601.03;;;12.63;100.00
8286;BME280;4181;43.416;24.598;2023-11-22T10:22:05;99600.78;;;12.65;100.00
8286;BME280;4181;43.416;24.598;2023-11-22T10:24:32;99595.31;;;12.70;100.00
8286;BME280;4181;43.416;24.598;2023-11-22T10:27:03;99602.69;;;12.69;100.00
8286;BME280;4181;43.416;24.598;2023-11-22T10:29:29;99600.78;;;12.70;100.00
8286;BME280;4181;43.416;24.598;2023-11-22T10:31:55;99605.44;;;12.64;100.00
8286;BME280;4181;43.416;24.598;2023-11-22T10:34:24;99595.03;;;12.66;100.00
8286;BME280;4181;43.416;24.598;2023-11-22T10:36:50;99604.31;;;12.65;100.00
8286;BME280;4181;43.416;24.598;2023-11-22T10:39:20;99598.03;;;12.70;100.00
8286;BME280;4181;43.416;24.598;2023-11-22T10:41:46;99601.06;;;12.53;100.00
8286;BME280;4181;43.416;24.598;2023-11-22T10:44:11;99603.00;;;12.58;100.00
8286;BME280;4181;43.416;24.598;2023-11-22T10:46:39;99614.47;;;12.60;100.00
8286;BME280;4181;43.416;24.598;2023-11-22T10:49:05;99622.13;;;12.63;100.00
8286;BME280;4181;43.416;24.598;2023-11-22T10:51:31;99612.28;;;12.57;100.00
8286;BME280;4181;43.416;24.598;2023-11-22T10:53:59;99601.06;;;12.53;100.00
8286;BME280;4181;43.416;24.598;2023-11-22T10:56:26;99612.53;;;12.60;100.00
8286;BME280;4181;43.416;24.598;2023-11-22T10:58:57;99603.53;;;12.60;100.00
8286;BME280;4181;43.416;24.598;2023-11-22T11:01:26;99609.53;;;12.57;100.00
8286;BME280;4181;43.416;24.598;2023-11-22T11:04:09;99609.53;;;12.57;100.00
8286;BME280;4181;43.416;24.598;2023-11-22T11:06:37;99612.28;;;12.52;100.00
8286;BME280;4181;43.416;24.598;2023-11-22T11:09:06;99601.06;;;12.53;100.00
8286;BME280;4181;43.416;24.598;2023-11-22T11:11:36;99607.91;;;12.61;100.00
8286;BME280;4181;43.416;24.598;2023-11-22T11:14:03;99605.13;;;12.71;100.00
8286;BME280;4181;43.416;24.598;2023-11-22T11:16:31;99607.88;;;12.71;100.00
8286;BME280;4181;43.416;24.598;2023-11-22T11:19:00;99602.97;;;12.68;100.00
8286;BME280;4181;43.416;24.598;2023-11-22T11:21:26;99596.41;;;12.54;100.00
8286;BME280;4181;43.416;24.598;2023-11-22T11:23:52;99581.38;;;12.51;100.00
8286;BME280;4181;43.416;24.598;2023-11-22T11:26:20;99578.09;;;12.54;100.00
8286;BME280;4181;43.416;24.598;2023-11-22T11:28:48;99577.25;;;12.54;100.00
8286;BME280;4181;43.416;24.598;2023-11-22T11:31:14;99578.91;;;12.55;100.00
8286;BME280;4181;43.416;24.598;2023-11-22T11:38:49;99577.81;;;12.61;100.00
8286;BME280;4181;43.416;24.598;2023-11-22T11:41:16;99589.84;;;12.65;100.00
8286;BME280;4181;43.416;24.598;2023-11-22T11:43:47;99585.16;;;12.70;100.00
8286;BME280;4181;43.416;24.598;2023-11-22T11:46:15;99594.19;;;12.71;100.00
8286;BME280;4181;43.416;24.598;2023-11-22T11:48:44;99604.56;;;12.79;100.00
8286;BME280;4181;43.416;24.598;2023-11-22T11:51:13;99599.09;;;12.79;100.00
8286;BME280;4181;43.416;24.598;2023-11-22T11:53:39;99611.44;;;12.77;100.00
8286;BME280;4181;43.416;24.598;2023-11-22T11:56:05;99594.47;;;12.69;100.00
8286;BME280;4181;43.416;24.598;2023-11-22T11:58:32;99596.13;;;12.60;100.00
8286;BME280;4181;43.416;24.598;2023-11-22T12:00:58;99596.97;;;12.61;100.00
8286;BME280;4181;43.416;24.598;2023-11-22T12:03:24;99596.97;;;12.61;100.00
8286;BME280;4181;43.416;24.598;2023-11-22T12:05:49;99583.81;;;12.63;100.00
8286;BME280;4181;43.416;24.598;2023-11-22T12:08:17;99586.81;;;12.71;100.00
8286;BME280;4181;43.416;24.598;2023-11-22T12:10:44;99596.09;;;12.70;100.00
8286;BME280;4181;43.416;24.598;2023-11-22T12:13:17;99612.25;;;12.72;100.00
8286;BME280;4181;43.416;24.598;2023-11-22T12:15:42;99606.75;;;12.72;100.00
8286;BME280;4181;43.416;24.598;2023-11-22T12:18:08;99613.09;;;12.67;100.00
8286;BME280;4181;43.416;24.598;2023-11-22T12:20:33;99624.59;;;12.64;100.00
8286;BME280;4181;43.416;24.598;2023-11-22T12:23:01;99624.03;;;12.62;100.00
8286;BME280;4181;43.416;24.598;2023-11-22T12:25:27;99631.13;;;12.73;100.00
8286;BME280;4181;43.416;24.598;2023-11-22T12:27:56;99626.47;;;12.74;100.00
8286;BME280;4181;43.416;24.598;2023-11-22T12:30:32;99626.78;;;12.67;100.00
8286;BME280;4181;43.416;24.598;2023-11-22T12:33:04;99624.59;;;12.69;100.00
8286;BME280;4181;43.416;24.598;2023-11-22T12:35:30;99624.31;;;12.61;100.00
8286;BME280;4181;43.416;24.598;2023-11-22T12:37:58;99619.69;;;12.56;100.00
8286;BME280;4181;43.416;24.598;2023-11-22T12:40:27;99633.09;;;12.53;100.00
8286;BME280;4181;43.416;24.598;2023-11-22T12:42:53;99624.34;;;12.56;100.00
8286;BME280;4181;43.416;24.598;2023-11-22T12:45:22;99630.06;;;12.59;100.00
8286;BME280;4181;43.416;24.598;2023-11-22T12:47:52;99635.00;;;12.57;100.00
8286;BME280;4181;43.416;24.598;2023-11-22T12:50:33;99632.53;;;12.66;100.00
8286;BME280;4181;43.416;24.598;2023-11-22T12:55:37;99624.88;;;12.68;100.00
8286;BME280;4181;43.416;24.598;2023-11-22T12:58:02;99628.16;;;12.70;100.00
8286;BME280;4181;43.416;24.598;2023-11-22T13:00:29;99639.34;;;12.63;100.00
8286;BME280;4181;43.416;24.598;2023-11-22T13:02:58;99628.16;;;12.65;100.00
8286;BME280;4181;43.416;24.598;2023-11-22T13:05:24;99643.22;;;12.52;100.00
8286;BME280;4181;43.416;24.598;2023-11-22T13:07:50;99637.19;;;12.45;100.00